createdAt,value
2023-02-28T04:01:45.865Z,-2.20
2023-02-28T04:04:14.789Z,-2.20
2023-02-28T04:06:42.510Z,-2.20
2023-02-28T04:11:57.598Z,-2.30
2023-02-28T04:14:25.286Z,-2.20
2023-02-28T04:16:53.339Z,-2.20
2023-02-28T04:19:20.898Z,-2.20
2023-02-28T04:21:52.831Z,-2.30
2023-02-28T04:24:25.937Z,-2.30
2023-02-28T04:26:54.988Z,-2.30
2023-02-28T04:29:33.245Z,-2.30
2023-02-28T04:32:01.884Z,-2.20
2023-02-28T04:34:30.863Z,-2.30
2023-02-28T04:37:14.467Z,-2.40
2023-02-28T04:39:42.772Z,-2.50
2023-02-28T04:42:10.976Z,-2.30
2023-02-28T04:44:38.187Z,-2.30
2023-02-28T04:47:05.653Z,-2.30
2023-02-28T04:49:33.699Z,-2.30
2023-02-28T04:52:00.833Z,-2.30
2023-02-28T04:54:29.307Z,-2.40
2023-02-28T04:56:56.913Z,-2.40
2023-02-28T04:59:24.123Z,-2.30
2023-02-28T05:01:51.284Z,-2.30
2023-02-28T05:04:18.476Z,-2.40
2023-02-28T05:06:45.807Z,-2.40
2023-02-28T05:09:12.998Z,-2.50
2023-02-28T05:11:41.040Z,-2.50
2023-02-28T05:14:13.610Z,-2.50
2023-02-28T05:16:41.047Z,-2.50
2023-02-28T05:19:08.323Z,-2.40
2023-02-28T05:21:40.757Z,-2.40
2023-02-28T05:24:11.996Z,-2.40
2023-02-28T05:26:43.877Z,-2.30
2023-02-28T05:29:11.629Z,-2.40
2023-02-28T05:31:39.384Z,-2.40
2023-02-28T05:34:07.046Z,-2.40
2023-02-28T05:36:34.879Z,-2.20
2023-02-28T05:39:02.117Z,-2.50
2023-02-28T05:41:29.620Z,-2.70
2023-02-28T05:43:58.480Z,-2.70
2023-02-28T05:46:25.645Z,-2.80
2023-02-28T05:48:52.913Z,-2.90
2023-02-28T05:51:20.109Z,-2.90
2023-02-28T05:53:49.150Z,-2.90
2023-02-28T05:56:16.616Z,-2.80
2023-02-28T05:58:43.777Z,-2.70
2023-02-28T06:01:23.733Z,-2.60
2023-02-28T06:03:51.132Z,-2.60
2023-02-28T06:06:18.521Z,-2.60
2023-02-28T06:08:46.659Z,-2.50
2023-02-28T06:11:14.048Z,-2.40
2023-02-28T06:13:41.601Z,-2.30
2023-02-28T06:16:11.941Z,-2.50
2023-02-28T06:18:39.804Z,-2.50
2023-02-28T06:21:07.000Z,-2.60
2023-02-28T06:23:34.180Z,-2.60
2023-02-28T06:26:01.413Z,-2.50
2023-02-28T06:28:28.761Z,-2.50
2023-02-28T06:30:55.936Z,-2.60
2023-02-28T06:33:23.182Z,-2.50
2023-02-28T06:35:53.674Z,-2.50
2023-02-28T06:38:20.916Z,-2.40
2023-02-28T06:40:58.247Z,-2.30
2023-02-28T06:43:26.681Z,-2.30
2023-02-28T06:45:56.948Z,-2.30
2023-02-28T06:48:24.836Z,-2.20
2023-02-28T06:50:52.058Z,-2.20
2023-02-28T06:53:19.293Z,-2.10
2023-02-28T06:55:46.570Z,-2.20
2023-02-28T06:58:16.835Z,-2.30
2023-02-28T07:00:44.815Z,-2.10
2023-02-28T07:03:13.418Z,-2.10
2023-02-28T07:05:40.759Z,-2.00
2023-02-28T07:08:08.404Z,-2.00
2023-02-28T07:10:37.634Z,-2.00
2023-02-28T07:13:06.129Z,-2.00
2023-02-28T07:15:33.266Z,-2.00
2023-02-28T07:18:00.455Z,-2.10
2023-02-28T07:20:27.866Z,-2.10
2023-02-28T07:22:58.113Z,-2.10
2023-02-28T07:25:29.037Z,-2.10
2023-02-28T07:27:57.671Z,-1.90
2023-02-28T07:30:24.834Z,-1.80
2023-02-28T07:32:52.004Z,-1.80
2023-02-28T07:35:20.231Z,-1.70
2023-02-28T07:37:48.078Z,-1.70
2023-02-28T07:40:15.761Z,-1.60
2023-02-28T07:42:43.353Z,-1.60
2023-02-28T07:45:12.614Z,-1.60
2023-02-28T07:47:40.507Z,-1.60
2023-02-28T07:50:10.594Z,-1.60
2023-02-28T07:52:38.371Z,-1.70
2023-02-28T07:55:10.299Z,-1.90
2023-02-28T07:57:37.855Z,-1.90
2023-02-28T08:00:07.669Z,-2.00
2023-02-28T08:02:38.068Z,-1.90
2023-02-28T08:05:06.588Z,-1.80
2023-02-28T08:07:34.452Z,-1.80
2023-02-28T08:10:01.774Z,-1.90
2023-02-28T08:12:29.054Z,-1.90
2023-02-28T08:14:56.305Z,-1.70
2023-02-28T08:17:23.508Z,-1.50
2023-02-28T08:19:51.203Z,-1.40
2023-02-28T08:22:18.409Z,-1.10
2023-02-28T08:24:45.744Z,-1.30
2023-02-28T08:27:13.064Z,-1.20
2023-02-28T08:29:40.671Z,-1.10
2023-02-28T08:32:17.486Z,-1.00
2023-02-28T08:34:50.993Z,-1.30
2023-02-28T08:37:18.159Z,-1.50
2023-02-28T08:39:45.266Z,-1.40
2023-02-28T08:42:12.482Z,-1.10
2023-02-28T08:44:39.678Z,-1.10
2023-02-28T08:47:06.833Z,-1.00
2023-02-28T08:49:34.038Z,-0.70
2023-02-28T08:52:01.201Z,-0.50
2023-02-28T08:54:31.660Z,-0.20
2023-02-28T08:56:58.819Z,-0.30
2023-02-28T08:59:26.013Z,-0.30
2023-02-28T09:01:53.368Z,-0.10
2023-02-28T09:04:21.174Z,0.10
2023-02-28T09:06:49.828Z,0.10
2023-02-28T09:09:17.333Z,0.30
2023-02-28T09:11:44.561Z,0.40
2023-02-28T09:14:11.772Z,0.30
2023-02-28T09:16:39.020Z,0.30
2023-02-28T09:19:06.176Z,0.20
2023-02-28T09:21:33.364Z,0.30
2023-02-28T09:24:00.581Z,0.40
2023-02-28T09:26:34.872Z,0.60
2023-02-28T09:29:10.201Z,0.80
2023-02-28T09:31:37.417Z,0.80
2023-02-28T09:34:05.349Z,0.90
2023-02-28T09:36:43.656Z,0.90
2023-02-28T09:39:13.445Z,0.90
2023-02-28T09:41:50.970Z,0.70
2023-02-28T09:44:28.168Z,0.80
2023-02-28T09:47:02.306Z,0.70
2023-02-28T09:49:38.905Z,0.80
2023-02-28T09:52:12.275Z,0.80
2023-02-28T09:54:40.092Z,0.90
2023-02-28T09:57:40.173Z,1.10
2023-02-28T10:00:25.888Z,1.00
2023-02-28T10:03:05.911Z,1.10
2023-02-28T10:05:43.430Z,0.90
2023-02-28T10:08:25.970Z,1.00
2023-02-28T10:10:58.131Z,1.40
2023-02-28T10:13:33.658Z,1.40
2023-02-28T10:16:20.473Z,1.20
2023-02-28T10:18:52.971Z,1.20
2023-02-28T10:21:30.385Z,1.30
2023-02-28T10:24:21.888Z,1.40
2023-02-28T10:26:53.753Z,1.50
2023-02-28T10:29:20.925Z,1.50
2023-02-28T10:31:48.331Z,1.40
2023-02-28T10:34:15.508Z,1.40
2023-02-28T10:36:44.707Z,1.70
2023-02-28T10:39:41.939Z,1.70
2023-02-28T10:42:22.783Z,1.80
2023-02-28T10:44:50.048Z,1.50
2023-02-28T10:47:20.471Z,1.50
2023-02-28T10:49:53.446Z,1.50
2023-02-28T10:52:41.129Z,1.60
2023-02-28T10:55:26.131Z,1.60
2023-02-28T10:57:53.844Z,1.40
2023-02-28T11:00:23.996Z,1.40
2023-02-28T11:02:51.237Z,0.90
2023-02-28T11:05:33.378Z,1.10
2023-02-28T11:08:08.077Z,1.30
2023-02-28T11:10:35.789Z,1.60
2023-02-28T11:13:04.583Z,1.60
2023-02-28T11:15:34.501Z,1.40
2023-02-28T11:18:12.527Z,1.30
2023-02-28T11:20:40.587Z,1.40
2023-02-28T11:23:14.590Z,1.40
2023-02-28T11:25:54.758Z,1.40
2023-02-28T11:28:42.502Z,1.40
2023-02-28T11:31:12.504Z,1.40
2023-02-28T11:33:51.857Z,1.50
2023-02-28T11:36:27.177Z,1.10
2023-02-28T11:38:56.403Z,0.90
2023-02-28T11:41:44.005Z,1.00
2023-02-28T11:44:19.766Z,1.00
2023-02-28T11:46:55.897Z,1.10
2023-02-28T11:49:51.427Z,1.20
2023-02-28T11:52:37.552Z,1.30
2023-02-28T11:55:16.374Z,1.30
2023-02-28T11:57:46.363Z,1.20
2023-02-28T12:00:34.542Z,1.30
2023-02-28T12:03:19.989Z,1.60
2023-02-28T12:05:54.585Z,1.50
2023-02-28T12:08:36.462Z,1.30
2023-02-28T12:11:41.042Z,1.40
2023-02-28T12:14:50.816Z,1.40
2023-02-28T12:17:20.731Z,1.10
2023-02-28T12:20:18.656Z,1.10
2023-02-28T12:22:54.309Z,1.30
2023-02-28T12:25:23.430Z,1.30
2023-02-28T12:27:54.135Z,1.40
2023-02-28T12:30:33.712Z,1.20
2023-02-28T12:33:12.010Z,1.20
2023-02-28T12:36:00.496Z,1.20
2023-02-28T12:38:37.362Z,1.20
2023-02-28T12:41:12.956Z,1.20
2023-02-28T12:43:53.976Z,1.20
2023-02-28T12:46:26.572Z,1.40
2023-02-28T12:49:00.259Z,1.40
2023-02-28T12:51:28.901Z,1.30
2023-02-28T12:54:15.116Z,1.20
2023-02-28T12:56:54.111Z,1.40
2023-02-28T12:59:37.980Z,1.30
2023-02-28T13:02:31.405Z,1.50
2023-02-28T13:05:13.421Z,1.30
2023-02-28T13:08:01.604Z,1.40
2023-02-28T13:10:55.400Z,1.50
2023-02-28T13:13:30.679Z,1.40
2023-02-28T13:16:00.972Z,1.50
2023-02-28T13:18:40.631Z,1.50
2023-02-28T13:21:10.533Z,1.10
2023-02-28T13:24:05.314Z,1.10
2023-02-28T13:26:39.522Z,1.30
2023-02-28T13:29:16.825Z,1.30
2023-02-28T13:32:11.544Z,1.10
2023-02-28T13:34:41.705Z,1.00
2023-02-28T13:37:26.602Z,1.20
2023-02-28T13:40:08.047Z,0.90
2023-02-28T13:42:45.937Z,1.10
2023-02-28T13:45:13.092Z,1.00
2023-02-28T13:47:44.637Z,0.70
2023-02-28T13:50:31.781Z,0.80
2023-02-28T13:53:14.356Z,0.70
2023-02-28T13:55:57.712Z,0.80
2023-02-28T13:58:40.300Z,0.90
2023-02-28T14:01:38.466Z,0.80
2023-02-28T14:04:14.471Z,0.70
2023-02-28T14:06:50.626Z,0.50
2023-02-28T14:09:29.589Z,0.60
2023-02-28T14:11:57.191Z,0.70
2023-02-28T14:14:36.526Z,0.90
2023-02-28T14:17:10.536Z,1.00
2023-02-28T14:19:39.815Z,1.00
2023-02-28T14:22:39.374Z,0.70
2023-02-28T14:25:12.247Z,0.70
2023-02-28T14:28:05.569Z,0.60
2023-02-28T14:31:10.633Z,0.80
2023-02-28T14:34:01.169Z,0.80
2023-02-28T14:36:40.560Z,0.90
2023-02-28T14:39:08.017Z,0.90
2023-02-28T14:41:39.551Z,1.00
2023-02-28T14:44:27.944Z,0.80
2023-02-28T14:46:57.587Z,0.90
2023-02-28T14:49:34.108Z,0.80
2023-02-28T14:52:06.932Z,1.10
2023-02-28T14:54:34.266Z,1.20
2023-02-28T14:57:01.488Z,1.40
2023-02-28T14:59:31.790Z,1.50
2023-02-28T15:02:21.786Z,1.60
2023-02-28T15:04:56.139Z,1.70
2023-02-28T15:07:29.632Z,1.80
2023-02-28T15:10:21.634Z,1.90
2023-02-28T15:13:01.361Z,1.70
2023-02-28T15:16:03.706Z,1.60
2023-02-28T15:18:39.939Z,1.60
2023-02-28T15:21:12.436Z,1.50
2023-02-28T15:23:43.959Z,1.50
2023-02-28T15:26:18.084Z,1.70
2023-02-28T15:28:45.790Z,1.70
2023-02-28T15:31:27.989Z,1.30
2023-02-28T15:34:03.260Z,1.30
2023-02-28T15:36:34.262Z,1.20
2023-02-28T15:39:14.392Z,1.30
2023-02-28T15:41:43.254Z,1.40
2023-02-28T15:44:30.349Z,1.30
2023-02-28T15:47:04.752Z,1.30
2023-02-28T15:49:48.763Z,1.40
2023-02-28T15:52:25.113Z,1.30
2023-02-28T15:54:53.033Z,1.30
2023-02-28T15:57:24.893Z,1.30
2023-02-28T15:59:59.793Z,1.30
2023-02-28T16:02:38.445Z,1.10
2023-02-28T16:05:11.502Z,1.00
2023-02-28T16:07:44.239Z,1.20
2023-02-28T16:10:17.488Z,1.20
2023-02-28T16:12:44.759Z,1.20
2023-02-28T16:15:22.640Z,1.20
2023-02-28T16:17:50.362Z,1.00
2023-02-28T16:20:23.559Z,0.80
2023-02-28T16:22:51.395Z,0.70
2023-02-28T16:25:21.457Z,0.50
2023-02-28T16:27:55.657Z,0.40
2023-02-28T16:30:28.419Z,0.20
2023-02-28T16:32:56.833Z,0.20
2023-02-28T16:35:24.570Z,0.10
2023-02-28T16:37:52.662Z,0.10
2023-02-28T16:40:24.054Z,0.00
2023-02-28T16:42:53.582Z,-0.10
2023-02-28T16:45:27.429Z,-0.20
2023-02-28T16:47:55.872Z,-0.20
2023-02-28T16:50:25.726Z,-0.10
2023-02-28T16:52:53.434Z,-0.20
2023-02-28T16:55:21.117Z,-0.20
2023-02-28T16:57:59.518Z,-0.20
2023-02-28T17:00:28.796Z,-0.30
2023-02-28T17:02:56.872Z,-0.30
2023-02-28T17:05:24.924Z,-0.40
2023-02-28T17:07:52.510Z,-0.40
2023-02-28T17:10:23.374Z,-0.40
2023-02-28T17:12:51.299Z,-0.40
2023-02-28T17:15:20.687Z,-0.40
2023-02-28T17:17:49.804Z,-0.40
2023-02-28T17:20:25.719Z,-0.40
2023-02-28T17:22:53.979Z,-0.40
2023-02-28T17:25:21.934Z,-0.40
2023-02-28T17:27:49.593Z,-0.40
2023-02-28T17:30:25.761Z,-0.50
2023-02-28T17:32:52.989Z,-0.50
2023-02-28T17:35:27.681Z,-0.60
2023-02-28T17:37:55.016Z,-0.60
2023-02-28T17:40:24.464Z,-0.60
2023-02-28T17:42:53.322Z,-0.60
2023-02-28T17:45:20.942Z,-0.80
2023-02-28T17:47:51.098Z,-0.90
2023-02-28T17:50:21.142Z,-0.90
2023-02-28T17:52:51.432Z,-1.00
2023-02-28T17:55:20.031Z,-1.00
2023-02-28T17:57:47.392Z,-0.90
2023-02-28T18:00:19.085Z,-1.00
2023-02-28T18:02:46.359Z,-1.00
2023-02-28T18:05:13.588Z,-1.20
2023-02-28T18:07:41.669Z,-1.30
2023-02-28T18:10:20.235Z,-1.40
2023-02-28T18:12:49.254Z,-1.30
2023-02-28T18:15:17.696Z,-1.40
2023-02-28T18:17:44.908Z,-1.60
2023-02-28T18:20:12.591Z,-1.60
2023-02-28T18:22:41.174Z,-1.80
2023-02-28T18:25:14.554Z,-1.90
2023-02-28T18:27:53.870Z,-2.00
2023-02-28T18:33:00.601Z,-2.30
2023-02-28T18:35:35.176Z,-2.10
2023-02-28T18:38:09.303Z,-1.90
2023-02-28T18:40:36.760Z,-1.90
2023-02-28T18:43:05.129Z,-1.80
2023-02-28T18:45:36.200Z,-1.90
2023-02-28T18:48:03.424Z,-1.90
2023-02-28T18:50:30.816Z,-1.90
2023-02-28T18:52:59.157Z,-2.00
2023-02-28T18:55:27.925Z,-1.90
2023-02-28T18:57:55.127Z,-1.90
2023-02-28T19:00:23.028Z,-1.80
2023-02-28T19:02:50.713Z,-1.60
2023-02-28T19:05:19.512Z,-1.70
2023-02-28T19:07:46.868Z,-1.90
2023-02-28T19:10:14.796Z,-2.10
2023-02-28T19:12:45.521Z,-2.00
2023-02-28T19:15:13.269Z,-1.80
2023-02-28T19:17:40.640Z,-1.60
2023-02-28T19:20:09.624Z,-1.60
2023-02-28T19:22:37.084Z,-1.50
2023-02-28T19:25:07.626Z,-1.60
2023-02-28T19:27:35.135Z,-1.60
2023-02-28T19:30:04.267Z,-1.70
2023-02-28T19:32:31.650Z,-1.70
2023-02-28T19:34:58.963Z,-1.60
2023-02-28T19:37:26.104Z,-1.60
2023-02-28T19:39:56.950Z,-1.50
2023-02-28T19:42:24.760Z,-1.50
2023-02-28T19:44:51.970Z,-1.40
2023-02-28T19:47:19.201Z,-1.30
2023-02-28T19:49:46.413Z,-1.30
2023-02-28T19:52:15.546Z,-1.20
2023-02-28T19:54:42.900Z,-1.40
2023-02-28T19:57:10.112Z,-1.40
2023-02-28T19:59:39.662Z,-1.30
2023-02-28T20:02:14.520Z,-1.30
2023-02-28T20:04:42.489Z,-1.30
2023-02-28T20:07:09.732Z,-1.30
2023-02-28T20:09:36.975Z,-1.30
2023-02-28T20:12:07.165Z,-1.20
2023-02-28T20:14:36.788Z,-1.10
2023-02-28T20:17:03.987Z,-1.10
2023-02-28T20:19:31.292Z,-1.20
2023-02-28T20:21:58.452Z,-1.10
2023-02-28T20:24:25.956Z,-1.10
2023-02-28T20:26:54.064Z,-1.10
2023-02-28T20:29:21.343Z,-1.10
2023-02-28T20:31:48.759Z,-1.10
2023-02-28T20:34:17.614Z,-1.10
2023-02-28T20:36:44.806Z,-1.20
2023-02-28T20:39:13.598Z,-1.20
2023-02-28T20:41:40.827Z,-1.00
2023-02-28T20:44:12.935Z,-0.90
2023-02-28T20:46:41.571Z,-1.00
2023-02-28T20:49:09.401Z,-1.00
2023-02-28T20:51:40.043Z,-0.90
2023-02-28T20:54:08.406Z,-0.90
2023-02-28T20:56:35.789Z,-1.10
2023-02-28T20:59:03.464Z,-1.20
2023-02-28T21:01:31.000Z,-0.90
2023-02-28T21:04:01.014Z,-0.90
2023-02-28T21:06:31.077Z,-0.70
2023-02-28T21:08:58.881Z,-0.90
2023-02-28T21:11:28.683Z,-0.80
2023-02-28T21:13:58.808Z,-0.90
2023-02-28T21:16:27.126Z,-0.90
2023-02-28T21:18:54.447Z,-1.00
2023-02-28T21:21:25.201Z,-0.90
2023-02-28T21:23:52.963Z,-0.90
2023-02-28T21:26:22.588Z,-1.00
2023-02-28T21:28:55.253Z,-0.90
2023-02-28T21:31:24.415Z,-1.00
2023-02-28T21:33:54.126Z,-1.10
2023-02-28T21:36:23.342Z,-1.20
2023-02-28T21:38:56.146Z,-1.10
2023-02-28T21:41:24.561Z,-1.10
2023-02-28T21:43:51.995Z,-1.00
2023-02-28T21:46:22.176Z,-0.90
2023-02-28T21:48:49.816Z,-0.80
2023-02-28T21:51:20.224Z,-0.80
2023-02-28T21:53:48.393Z,-0.80
2023-02-28T21:56:17.161Z,-0.70
2023-02-28T21:58:44.318Z,-0.70
